Lancaster, PA

1:03 AM EST on February 09, 2016 (GMT -0500)
Paradise | | Change Station
CLOSE
Current Station
Personal Weather Station
Location: Paradise, PA
Elevation: 365 ft
Nearby Weather Stations
Active Advisory: Winter Storm Warning

Elev 365 ft 40.01 °N, 76.14 °W | Updated 10 minutes ago

Snow
Snow
31.0 °F
Feels Like 31 °F
N
2.0
Wind Variable Wind from ESE
Gusts 9.0 mph

Today
High -- | Low -- °F
--% Chance of Precip.
Yesterday
High -- | Low -- °F
Precip. -- in
Pressure 29.65 in
Visibility 1.2 miles
Clouds Mostly Cloudy 400 ft
Overcast 2300 ft
Windchill 31 °F
Dew Point 30 °F
Humidity 95%
Rainfall 0.00 in
Snow Depth Not available.
7:05 AM 5:32 PM
New Moon, 1% visible
SPECI KLNS 090601Z AUTO 12012KT 1 1/4SM -SN BR BKN004 OVC023 M01/M01 A2965 RMK AO2 P0000 T10061011
Pressure 29.65 in
Visibility 1.2 miles
Clouds Mostly Cloudy 400 ft
Overcast 2300 ft
Windchill 31 °F
Dew Point 30 °F
Humidity 95%
Rainfall 0.00 in
Snow Depth Not available.
7:05 AM 5:32 PM
New Moon, 1% visible
SPECI KLNS 090601Z AUTO 12012KT 1 1/4SM -SN BR BKN004 OVC023 M01/M01 A2965 RMK AO2 P0000 T10061011

10-Day Weather Forecast

Almanac

Astronomy

Feb. 09, 2016 Rise Set
Actual Time
Civil Twilight
Nautical Twilight
Astronomical Twilight
Moon
Length of Visible Light
Length of Day
Tomorrow will be .
, % of the Moon is Illuminated

Today's Extremes

State Highs State Lows

Community

WunderPhotos

Upload Photos

1,891,570 photos uploaded!

WunderBlog® & News

Nearby

Air Quality

  Air Quality AQ Index Pollutant
Not available.

Snow Depth

Station Depth Elevation

Earthquake Activity

City Distance Mag. Time & Date
Minimum magnitude displayed is 2.5.

Coastal Water Temperatures

Place Temperature

Stations

Nearby Weather Stations

Station Location Temp. Windchill Dew Point Humidity Wind Precip. Elev Updated Type
                   

Watches & Warnings

Winter Storm Warning
Issued: 10:53 PM EST Feb. 8, 2016 – National Weather Service

... Winter Storm Warning remains in effect until 5 am EST
Wednesday...

* snow accumulations... 4 to 7 inches... with the highest amounts on
the hilltops.

* Timing... light snow will fall overnight through Tuesday evening.

* Impacts... untreated roads could be snow covered and slippery.

Precautionary/preparedness actions...

Dangerous winter weather conditions are expected or occurring.
Use caution if traveling. For the latest weather information... go
to weather.Gov/statecollege or monitor NOAA Weather Radio.

Report snow or ice accumulation to the National Weather Service
State College by sending an email to ctp.Stormreports@noaa.Gov...
posting to the NWS State College facebook Page... or tweet
@nwsstatecollege with the hashtag c... T... p... W... x.